Main page
METAR-TAF:

METAR-TAF

Airports :

Cambridge, England

Cambridge Airport

latitude: 52-12N, longitude: 000-11E, elevation: 15 m

Current weather observation

The report was made 8 hours and 27 minutes ago, at 17:50 UTC
Wind 5 kt from the West/Northwest
Temperature 3°C
Humidity 87%
Pressure 1019 hPa
Visibility 10 km or more
no clouds below 1500 m and no cumulonimbus

METAR: EGSC 161750Z 30005KT CAVOK 03/01 Q1019

Time: 02:17 (02:17 UTC)

Forecast

The report was made 10 hours and 1 minutes ago, at 16:16 UTC
Forecast valid from 16 at 16 UTC to 16 at 19 UTC
Wind 6 kt from the West/Northwest
Visibility 10 km or more
Scattered clouds at a height of 2000 ft
Temporary
from 16 at 16 UTC to 16 at 17 UTC
Visibility: 9000 m
Broken clouds at a height of 1200 ft

TAF: EGSC 161616Z 1616/1619 29006KT 9999 SCT020 TEMPO 1616/1617 9000 BKN012

Weather observations and forecasts of more than 4000 airports (METAR and TAF reports).

The available stations are represented by yellow and red dots on the map.

Hover mouse over dot to see the name of the station.

Then click to see weather observations and forecasts.

To change the map : click on the green buttons with a black cross to zoom in, on the green button with a dash to zoom out, or on the green arrows for adjacent maps.


METAR-TAF: